sensor_id;sensor_type;location;lat;lon;timestamp;P1;durP1;ratioP1;P2;durP2;ratioP2
19036;SDS011;9651;49.138;8.900;2023-07-02T00:00:12;2.42;;;2.08;;
19036;SDS011;9651;49.138;8.900;2023-07-02T00:04:15;3.53;;;2.50;;
19036;SDS011;9651;49.138;8.900;2023-07-02T00:08:19;2.75;;;2.33;;
19036;SDS011;9651;49.138;8.900;2023-07-02T00:12:22;5.35;;;2.38;;
19036;SDS011;9651;49.138;8.900;2023-07-02T00:16:24;1.92;;;1.83;;
19036;SDS011;9651;49.138;8.900;2023-07-02T00:20:26;2.78;;;1.95;;
19036;SDS011;9651;49.138;8.900;2023-07-02T00:24:28;4.53;;;2.35;;
19036;SDS011;9651;49.138;8.900;2023-07-02T00:28:31;2.70;;;2.22;;
19036;SDS011;9651;49.138;8.900;2023-07-02T00:32:33;4.38;;;2.40;;
19036;SDS011;9651;49.138;8.900;2023-07-02T00:36:35;5.25;;;2.55;;
19036;SDS011;9651;49.138;8.900;2023-07-02T00:40:36;2.88;;;2.03;;
19036;SDS011;9651;49.138;8.900;2023-07-02T00:44:40;5.57;;;2.72;;
19036;SDS011;9651;49.138;8.900;2023-07-02T00:48:42;4.30;;;2.60;;
19036;SDS011;9651;49.138;8.900;2023-07-02T00:52:45;3.08;;;2.50;;
19036;SDS011;9651;49.138;8.900;2023-07-02T00:56:47;5.03;;;2.55;;
19036;SDS011;9651;49.138;8.900;2023-07-02T01:00:52;3.03;;;2.22;;
19036;SDS011;9651;49.138;8.900;2023-07-02T01:04:56;4.60;;;2.45;;
19036;SDS011;9651;49.138;8.900;2023-07-02T01:09:02;3.67;;;2.63;;
19036;SDS011;9651;49.138;8.900;2023-07-02T01:13:06;3.72;;;2.90;;
19036;SDS011;9651;49.138;8.900;2023-07-02T01:17:13;2.45;;;2.25;;
19036;SDS011;9651;49.138;8.900;2023-07-02T01:21:22;3.17;;;2.58;;
19036;SDS011;9651;49.138;8.900;2023-07-02T01:25:25;3.40;;;2.30;;
19036;SDS011;9651;49.138;8.900;2023-07-02T01:29:28;2.50;;;2.30;;
19036;SDS011;9651;49.138;8.900;2023-07-02T01:33:31;5.25;;;2.88;;
19036;SDS011;9651;49.138;8.900;2023-07-02T01:37:34;3.92;;;2.63;;
19036;SDS011;9651;49.138;8.900;2023-07-02T01:41:43;3.28;;;2.78;;
19036;SDS011;9651;49.138;8.900;2023-07-02T01:45:46;10.77;;;3.13;;
19036;SDS011;9651;49.138;8.900;2023-07-02T01:49:48;2.58;;;2.17;;
19036;SDS011;9651;49.138;8.900;2023-07-02T01:53:52;3.80;;;2.58;;
19036;SDS011;9651;49.138;8.900;2023-07-02T01:57:54;3.97;;;2.97;;
19036;SDS011;9651;49.138;8.900;2023-07-02T02:01:56;5.63;;;2.78;;
19036;SDS011;9651;49.138;8.900;2023-07-02T02:05:57;2.92;;;2.63;;
19036;SDS011;9651;49.138;8.900;2023-07-02T02:10:01;4.00;;;2.85;;
19036;SDS011;9651;49.138;8.900;2023-07-02T02:14:03;2.60;;;2.17;;
19036;SDS011;9651;49.138;8.900;2023-07-02T02:18:05;4.43;;;2.85;;
19036;SDS011;9651;49.138;8.900;2023-07-02T02:22:08;3.05;;;2.53;;
19036;SDS011;9651;49.138;8.900;2023-07-02T02:26:11;5.68;;;3.50;;
19036;SDS011;9651;49.138;8.900;2023-07-02T02:30:13;6.90;;;3.33;;
19036;SDS011;9651;49.138;8.900;2023-07-02T02:34:15;8.43;;;4.00;;
19036;SDS011;9651;49.138;8.900;2023-07-02T02:38:17;5.70;;;3.08;;
19036;SDS011;9651;49.138;8.900;2023-07-02T02:42:20;6.18;;;3.22;;
19036;SDS011;9651;49.138;8.900;2023-07-02T02:46:22;5.20;;;3.40;;
19036;SDS011;9651;49.138;8.900;2023-07-02T02:50:24;5.72;;;3.50;;
19036;SDS011;9651;49.138;8.900;2023-07-02T02:54:27;5.90;;;3.50;;
19036;SDS011;9651;49.138;8.900;2023-07-02T02:58:30;3.78;;;2.88;;
19036;SDS011;9651;49.138;8.900;2023-07-02T03:02:32;5.93;;;3.70;;
19036;SDS011;9651;49.138;8.900;2023-07-02T03:06:34;8.32;;;3.30;;
19036;SDS011;9651;49.138;8.900;2023-07-02T03:10:35;5.63;;;3.05;;
19036;SDS011;9651;49.138;8.900;2023-07-02T03:14:39;4.30;;;3.00;;
19036;SDS011;9651;49.138;8.900;2023-07-02T03:18:40;7.47;;;2.95;;
19036;SDS011;9651;49.138;8.900;2023-07-02T03:22:42;6.80;;;3.40;;
19036;SDS011;9651;49.138;8.900;2023-07-02T03:26:44;6.60;;;3.97;;
19036;SDS011;9651;49.138;8.900;2023-07-02T03:30:48;5.05;;;3.35;;
19036;SDS011;9651;49.138;8.900;2023-07-02T03:34:50;7.25;;;4.13;;
19036;SDS011;9651;49.138;8.900;2023-07-02T03:38:52;6.82;;;3.65;;
19036;SDS011;9651;49.138;8.900;2023-07-02T03:42:54;6.32;;;3.53;;
19036;SDS011;9651;49.138;8.900;2023-07-02T03:46:57;10.60;;;4.40;;
19036;SDS011;9651;49.138;8.900;2023-07-02T03:50:58;8.23;;;4.53;;
19036;SDS011;9651;49.138;8.900;2023-07-02T03:55:02;9.57;;;4.60;;
19036;SDS011;9651;49.138;8.900;2023-07-02T03:59:05;5.70;;;3.88;;
19036;SDS011;9651;49.138;8.900;2023-07-02T04:03:08;9.23;;;4.05;;
19036;SDS011;9651;49.138;8.900;2023-07-02T04:07:10;11.45;;;4.60;;
19036;SDS011;9651;49.138;8.900;2023-07-02T04:11:12;9.85;;;4.32;;
19036;SDS011;9651;49.138;8.900;2023-07-02T04:15:14;7.57;;;4.00;;
19036;SDS011;9651;49.138;8.900;2023-07-02T04:19:17;12.60;;;4.25;;
19036;SDS011;9651;49.138;8.900;2023-07-02T04:23:19;6.03;;;3.75;;
19036;SDS011;9651;49.138;8.900;2023-07-02T04:27:20;13.32;;;4.03;;
19036;SDS011;9651;49.138;8.900;2023-07-02T04:31:22;17.27;;;3.88;;
19036;SDS011;9651;49.138;8.900;2023-07-02T04:35:26;7.47;;;3.67;;
19036;SDS011;9651;49.138;8.900;2023-07-02T04:39:27;10.93;;;4.18;;
19036;SDS011;9651;49.138;8.900;2023-07-02T04:43:29;6.90;;;3.30;;
19036;SDS011;9651;49.138;8.900;2023-07-02T04:47:31;6.65;;;2.88;;
19036;SDS011;9651;49.138;8.900;2023-07-02T04:51:35;5.20;;;3.22;;
19036;SDS011;9651;49.138;8.900;2023-07-02T04:55:37;6.50;;;2.70;;
19036;SDS011;9651;49.138;8.900;2023-07-02T04:59:38;3.35;;;2.90;;
19036;SDS011;9651;49.138;8.900;2023-07-02T05:03:40;6.28;;;3.15;;
19036;SDS011;9651;49.138;8.900;2023-07-02T05:07:44;5.90;;;2.88;;
19036;SDS011;9651;49.138;8.900;2023-07-02T05:11:46;3.25;;;2.47;;
19036;SDS011;9651;49.138;8.900;2023-07-02T05:15:47;3.88;;;3.00;;
19036;SDS011;9651;49.138;8.900;2023-07-02T05:19:49;4.05;;;2.60;;
19036;SDS011;9651;49.138;8.900;2023-07-02T05:23:53;5.10;;;2.67;;
19036;SDS011;9651;49.138;8.900;2023-07-02T05:27:55;7.38;;;3.00;;
19036;SDS011;9651;49.138;8.900;2023-07-02T05:31:57;7.05;;;3.60;;
19036;SDS011;9651;49.138;8.900;2023-07-02T05:35:58;9.75;;;4.13;;
19036;SDS011;9651;49.138;8.900;2023-07-02T05:40:02;5.20;;;4.15;;
19036;SDS011;9651;49.138;8.900;2023-07-02T05:44:04;9.10;;;4.20;;
19036;SDS011;9651;49.138;8.900;2023-07-02T05:48:06;9.63;;;4.40;;
19036;SDS011;9651;49.138;8.900;2023-07-02T05:52:08;11.43;;;4.85;;
19036;SDS011;9651;49.138;8.900;2023-07-02T05:56:11;8.98;;;5.38;;
19036;SDS011;9651;49.138;8.900;2023-07-02T06:00:13;10.70;;;5.22;;
19036;SDS011;9651;49.138;8.900;2023-07-02T06:04:17;13.18;;;6.53;;
19036;SDS011;9651;49.138;8.900;2023-07-02T06:08:19;11.77;;;6.00;;
19036;SDS011;9651;49.138;8.900;2023-07-02T06:12:22;13.38;;;6.93;;
19036;SDS011;9651;49.138;8.900;2023-07-02T06:16:24;11.13;;;6.10;;
19036;SDS011;9651;49.138;8.900;2023-07-02T06:20:26;11.50;;;6.18;;
19036;SDS011;9651;49.138;8.900;2023-07-02T06:24:28;13.02;;;6.93;;
19036;SDS011;9651;49.138;8.900;2023-07-02T06:28:31;11.32;;;6.90;;
19036;SDS011;9651;49.138;8.900;2023-07-02T06:32:33;15.18;;;7.50;;
19036;SDS011;9651;49.138;8.900;2023-07-02T06:36:35;16.33;;;7.22;;
19036;SDS011;9651;49.138;8.900;2023-07-02T06:40:37;13.95;;;6.55;;
19036;SDS011;9651;49.138;8.900;2023-07-02T06:44:40;15.18;;;7.50;;
19036;SDS011;9651;49.138;8.900;2023-07-02T06:48:42;12.68;;;8.00;;
19036;SDS011;9651;49.138;8.900;2023-07-02T06:52:44;9.68;;;6.50;;
19036;SDS011;9651;49.138;8.900;2023-07-02T06:56:46;11.27;;;6.20;;
19036;SDS011;9651;49.138;8.900;2023-07-02T07:00:49;10.88;;;7.35;;
19036;SDS011;9651;49.138;8.900;2023-07-02T07:04:51;12.98;;;7.95;;
19036;SDS011;9651;49.138;8.900;2023-07-02T07:08:53;11.77;;;6.53;;
19036;SDS011;9651;49.138;8.900;2023-07-02T07:12:55;11.65;;;7.45;;
19036;SDS011;9651;49.138;8.900;2023-07-02T07:16:58;13.63;;;7.43;;
19036;SDS011;9651;49.138;8.900;2023-07-02T07:21:00;12.32;;;7.32;;
19036;SDS011;9651;49.138;8.900;2023-07-02T07:25:02;13.23;;;7.40;;
19036;SDS011;9651;49.138;8.900;2023-07-02T07:29:04;10.65;;;7.05;;
19036;SDS011;9651;49.138;8.900;2023-07-02T07:33:07;14.00;;;7.13;;
19036;SDS011;9651;49.138;8.900;2023-07-02T07:37:09;13.02;;;8.32;;
19036;SDS011;9651;49.138;8.900;2023-07-02T07:41:11;14.27;;;8.80;;
19036;SDS011;9651;49.138;8.900;2023-07-02T07:45:13;13.90;;;7.85;;
19036;SDS011;9651;49.138;8.900;2023-07-02T07:49:16;17.48;;;8.07;;
19036;SDS011;9651;49.138;8.900;2023-07-02T07:53:18;19.13;;;9.27;;
19036;SDS011;9651;49.138;8.900;2023-07-02T07:57:20;17.38;;;10.00;;
19036;SDS011;9651;49.138;8.900;2023-07-02T08:01:21;16.13;;;8.82;;
19036;SDS011;9651;49.138;8.900;2023-07-02T08:05:25;19.02;;;10.40;;
19036;SDS011;9651;49.138;8.900;2023-07-02T08:09:27;20.08;;;11.73;;
19036;SDS011;9651;49.138;8.900;2023-07-02T08:13:29;16.15;;;10.20;;
19036;SDS011;9651;49.138;8.900;2023-07-02T08:17:31;16.67;;;10.57;;
19036;SDS011;9651;49.138;8.900;2023-07-02T08:21:34;18.35;;;10.75;;
19036;SDS011;9651;49.138;8.900;2023-07-02T08:25:36;17.33;;;11.13;;
19036;SDS011;9651;49.138;8.900;2023-07-02T08:29:38;19.13;;;10.50;;
19036;SDS011;9651;49.138;8.900;2023-07-02T08:33:40;17.77;;;10.43;;
19036;SDS011;9651;49.138;8.900;2023-07-02T08:37:43;19.70;;;12.13;;
19036;SDS011;9651;49.138;8.900;2023-07-02T08:41:45;21.58;;;11.85;;
19036;SDS011;9651;49.138;8.900;2023-07-02T08:45:48;21.80;;;11.48;;
19036;SDS011;9651;49.138;8.900;2023-07-02T08:49:50;21.10;;;11.93;;
19036;SDS011;9651;49.138;8.900;2023-07-02T08:53:53;19.90;;;11.80;;
19036;SDS011;9651;49.138;8.900;2023-07-02T08:57:56;20.73;;;12.00;;
19036;SDS011;9651;49.138;8.900;2023-07-02T09:02:00;21.55;;;12.02;;
19036;SDS011;9651;49.138;8.900;2023-07-02T09:06:02;28.77;;;13.95;;
19036;SDS011;9651;49.138;8.900;2023-07-02T09:10:06;17.92;;;11.90;;
19036;SDS011;9651;49.138;8.900;2023-07-02T09:14:08;19.17;;;12.27;;
19036;SDS011;9651;49.138;8.900;2023-07-02T09:18:16;20.60;;;13.05;;
19036;SDS011;9651;49.138;8.900;2023-07-02T09:22:19;21.95;;;13.20;;
19036;SDS011;9651;49.138;8.900;2023-07-02T09:26:22;19.25;;;13.00;;
19036;SDS011;9651;49.138;8.900;2023-07-02T09:30:25;19.25;;;13.27;;
19036;SDS011;9651;49.138;8.900;2023-07-02T09:34:27;23.15;;;13.82;;
19036;SDS011;9651;49.138;8.900;2023-07-02T09:38:30;18.42;;;13.02;;
19036;SDS011;9651;49.138;8.900;2023-07-02T09:42:33;20.92;;;12.65;;
19036;SDS011;9651;49.138;8.900;2023-07-02T09:46:37;23.10;;;13.95;;
19036;SDS011;9651;49.138;8.900;2023-07-02T09:50:43;23.70;;;13.07;;
19036;SDS011;9651;49.138;8.900;2023-07-02T09:54:46;20.42;;;13.82;;
19036;SDS011;9651;49.138;8.900;2023-07-02T09:58:49;19.25;;;12.35;;
19036;SDS011;9651;49.138;8.900;2023-07-02T10:02:51;22.35;;;13.82;;
19036;SDS011;9651;49.138;8.900;2023-07-02T10:06:53;19.30;;;13.30;;
19036;SDS011;9651;49.138;8.900;2023-07-02T10:11:05;20.90;;;13.60;;
19036;SDS011;9651;49.138;8.900;2023-07-02T10:15:12;19.75;;;14.15;;
19036;SDS011;9651;49.138;8.900;2023-07-02T10:19:26;20.75;;;14.20;;
19036;SDS011;9651;49.138;8.900;2023-07-02T10:23:34;20.08;;;14.60;;
19036;SDS011;9651;49.138;8.900;2023-07-02T10:27:36;20.23;;;13.98;;
19036;SDS011;9651;49.138;8.900;2023-07-02T10:31:48;20.38;;;14.15;;
19036;SDS011;9651;49.138;8.900;2023-07-02T10:35:51;21.88;;;13.88;;
19036;SDS011;9651;49.138;8.900;2023-07-02T10:39:53;21.08;;;12.98;;
19036;SDS011;9651;49.138;8.900;2023-07-02T10:44:04;18.33;;;13.02;;
19036;SDS011;9651;49.138;8.900;2023-07-02T10:48:09;20.30;;;12.82;;
19036;SDS011;9651;49.138;8.900;2023-07-02T10:52:11;17.75;;;13.30;;
19036;SDS011;9651;49.138;8.900;2023-07-02T10:56:15;18.13;;;12.30;;
19036;SDS011;9651;49.138;8.900;2023-07-02T11:00:18;19.98;;;12.88;;
19036;SDS011;9651;49.138;8.900;2023-07-02T11:04:21;21.55;;;14.02;;
19036;SDS011;9651;49.138;8.900;2023-07-02T11:08:24;19.20;;;13.73;;
19036;SDS011;9651;49.138;8.900;2023-07-02T11:12:36;17.48;;;12.73;;
19036;SDS011;9651;49.138;8.900;2023-07-02T11:16:38;22.63;;;13.98;;
19036;SDS011;9651;49.138;8.900;2023-07-02T11:20:42;22.83;;;13.68;;
19036;SDS011;9651;49.138;8.900;2023-07-02T11:24:45;21.13;;;13.40;;
19036;SDS011;9651;49.138;8.900;2023-07-02T11:28:48;18.08;;;13.38;;
19036;SDS011;9651;49.138;8.900;2023-07-02T11:32:52;21.38;;;13.48;;
19036;SDS011;9651;49.138;8.900;2023-07-02T11:36:56;18.80;;;13.05;;
19036;SDS011;9651;49.138;8.900;2023-07-02T11:40:58;18.38;;;12.77;;
19036;SDS011;9651;49.138;8.900;2023-07-02T11:45:00;20.40;;;13.35;;
19036;SDS011;9651;49.138;8.900;2023-07-02T11:49:02;19.58;;;13.95;;
19036;SDS011;9651;49.138;8.900;2023-07-02T11:53:06;20.88;;;14.27;;
19036;SDS011;9651;49.138;8.900;2023-07-02T11:57:08;21.02;;;14.50;;
19036;SDS011;9651;49.138;8.900;2023-07-02T12:01:10;20.65;;;14.15;;
19036;SDS011;9651;49.138;8.900;2023-07-02T12:05:12;18.80;;;13.82;;
19036;SDS011;9651;49.138;8.900;2023-07-02T12:09:15;16.23;;;13.40;;
19036;SDS011;9651;49.138;8.900;2023-07-02T12:13:17;19.02;;;13.73;;
19036;SDS011;9651;49.138;8.900;2023-07-02T12:17:20;17.33;;;13.20;;
19036;SDS011;9651;49.138;8.900;2023-07-02T12:21:22;18.60;;;13.38;;
19036;SDS011;9651;49.138;8.900;2023-07-02T12:25:25;19.13;;;13.60;;
19036;SDS011;9651;49.138;8.900;2023-07-02T12:29:27;20.27;;;13.98;;
19036;SDS011;9651;49.138;8.900;2023-07-02T12:33:29;20.33;;;13.50;;
19036;SDS011;9651;49.138;8.900;2023-07-02T12:37:31;18.05;;;14.25;;
19036;SDS011;9651;49.138;8.900;2023-07-02T12:41:35;19.10;;;13.98;;
19036;SDS011;9651;49.138;8.900;2023-07-02T12:45:37;22.48;;;14.63;;
19036;SDS011;9651;49.138;8.900;2023-07-02T12:49:39;19.85;;;14.70;;
19036;SDS011;9651;49.138;8.900;2023-07-02T12:53:40;17.83;;;13.55;;
19036;SDS011;9651;49.138;8.900;2023-07-02T12:57:44;20.88;;;13.55;;
19036;SDS011;9651;49.138;8.900;2023-07-02T13:01:46;19.75;;;13.60;;
19036;SDS011;9651;49.138;8.900;2023-07-02T13:05:48;18.83;;;13.15;;
19036;SDS011;9651;49.138;8.900;2023-07-02T13:09:50;18.17;;;13.77;;
19036;SDS011;9651;49.138;8.900;2023-07-02T13:13:53;19.98;;;13.57;;
19036;SDS011;9651;49.138;8.900;2023-07-02T13:17:55;20.55;;;13.82;;
19036;SDS011;9651;49.138;8.900;2023-07-02T13:21:57;17.70;;;13.45;;
19036;SDS011;9651;49.138;8.900;2023-07-02T13:25:58;22.55;;;14.77;;
19036;SDS011;9651;49.138;8.900;2023-07-02T13:30:02;20.42;;;14.35;;
19036;SDS011;9651;49.138;8.900;2023-07-02T13:34:04;21.23;;;14.57;;
19036;SDS011;9651;49.138;8.900;2023-07-02T13:38:06;19.58;;;13.55;;
19036;SDS011;9651;49.138;8.900;2023-07-02T13:42:08;23.55;;;14.57;;
19036;SDS011;9651;49.138;8.900;2023-07-02T13:46:11;19.27;;;14.10;;
19036;SDS011;9651;49.138;8.900;2023-07-02T13:50:13;17.30;;;13.00;;
19036;SDS011;9651;49.138;8.900;2023-07-02T13:54:15;17.98;;;14.38;;
19036;SDS011;9651;49.138;8.900;2023-07-02T13:58:18;15.82;;;13.20;;
19036;SDS011;9651;49.138;8.900;2023-07-02T14:02:21;18.73;;;15.27;;
19036;SDS011;9651;49.138;8.900;2023-07-02T14:06:23;19.63;;;13.57;;
19036;SDS011;9651;49.138;8.900;2023-07-02T14:10:25;16.15;;;12.60;;
19036;SDS011;9651;49.138;8.900;2023-07-02T14:14:28;18.35;;;13.70;;
19036;SDS011;9651;49.138;8.900;2023-07-02T14:18:31;18.33;;;13.77;;
19036;SDS011;9651;49.138;8.900;2023-07-02T14:22:33;18.10;;;13.80;;
19036;SDS011;9651;49.138;8.900;2023-07-02T14:26:35;23.73;;;13.00;;
19036;SDS011;9651;49.138;8.900;2023-07-02T14:30:37;16.15;;;13.13;;
19036;SDS011;9651;49.138;8.900;2023-07-02T14:34:41;18.98;;;14.32;;
19036;SDS011;9651;49.138;8.900;2023-07-02T14:38:43;15.80;;;12.70;;
19036;SDS011;9651;49.138;8.900;2023-07-02T14:42:45;19.90;;;13.25;;
19036;SDS011;9651;49.138;8.900;2023-07-02T14:46:47;20.02;;;13.02;;
19036;SDS011;9651;49.138;8.900;2023-07-02T14:50:50;20.45;;;12.93;;
19036;SDS011;9651;49.138;8.900;2023-07-02T14:54:54;24.63;;;13.32;;
19036;SDS011;9651;49.138;8.900;2023-07-02T14:58:56;15.90;;;12.35;;
19036;SDS011;9651;49.138;8.900;2023-07-02T15:02:58;17.88;;;12.35;;
19036;SDS011;9651;49.138;8.900;2023-07-02T15:07:01;18.38;;;11.82;;
19036;SDS011;9651;49.138;8.900;2023-07-02T15:11:03;15.68;;;11.68;;
19036;SDS011;9651;49.138;8.900;2023-07-02T15:15:05;15.75;;;12.23;;
19036;SDS011;9651;49.138;8.900;2023-07-02T15:19:09;17.02;;;12.00;;
19036;SDS011;9651;49.138;8.900;2023-07-02T15:23:13;16.00;;;12.32;;
19036;SDS011;9651;49.138;8.900;2023-07-02T15:27:16;15.95;;;11.93;;
19036;SDS011;9651;49.138;8.900;2023-07-02T15:31:18;15.95;;;12.15;;
19036;SDS011;9651;49.138;8.900;2023-07-02T15:35:21;20.15;;;12.05;;
19036;SDS011;9651;49.138;8.900;2023-07-02T15:39:24;15.07;;;11.45;;
19036;SDS011;9651;49.138;8.900;2023-07-02T15:43:32;21.38;;;12.35;;
19036;SDS011;9651;49.138;8.900;2023-07-02T15:47:34;15.38;;;11.65;;
19036;SDS011;9651;49.138;8.900;2023-07-02T15:51:36;16.83;;;11.80;;
19036;SDS011;9651;49.138;8.900;2023-07-02T15:55:40;17.38;;;11.32;;
19036;SDS011;9651;49.138;8.900;2023-07-02T15:59:43;16.42;;;11.57;;
19036;SDS011;9651;49.138;8.900;2023-07-02T16:03:44;16.80;;;11.23;;
19036;SDS011;9651;49.138;8.900;2023-07-02T16:07:46;15.60;;;11.15;;
19036;SDS011;9651;49.138;8.900;2023-07-02T16:11:49;15.55;;;11.15;;
19036;SDS011;9651;49.138;8.900;2023-07-02T16:15:51;14.25;;;11.15;;
19036;SDS011;9651;49.138;8.900;2023-07-02T16:19:53;17.35;;;12.02;;
19036;SDS011;9651;49.138;8.900;2023-07-02T16:23:56;21.98;;;12.70;;
19036;SDS011;9651;49.138;8.900;2023-07-02T16:27:59;16.17;;;12.02;;
19036;SDS011;9651;49.138;8.900;2023-07-02T16:32:03;17.15;;;12.18;;
19036;SDS011;9651;49.138;8.900;2023-07-02T16:36:06;17.60;;;11.63;;
19036;SDS011;9651;49.138;8.900;2023-07-02T16:40:10;15.88;;;11.25;;
19036;SDS011;9651;49.138;8.900;2023-07-02T16:44:14;17.15;;;11.05;;
19036;SDS011;9651;49.138;8.900;2023-07-02T16:48:16;20.30;;;12.75;;
19036;SDS011;9651;49.138;8.900;2023-07-02T16:52:18;16.83;;;10.85;;
19036;SDS011;9651;49.138;8.900;2023-07-02T16:56:20;17.48;;;11.55;;
19036;SDS011;9651;49.138;8.900;2023-07-02T17:00:23;16.33;;;10.60;;
19036;SDS011;9651;49.138;8.900;2023-07-02T17:04:26;20.70;;;11.35;;
19036;SDS011;9651;49.138;8.900;2023-07-02T17:08:33;18.17;;;12.18;;
19036;SDS011;9651;49.138;8.900;2023-07-02T17:12:36;17.25;;;11.68;;
19036;SDS011;9651;49.138;8.900;2023-07-02T17:16:40;19.85;;;11.90;;
19036;SDS011;9651;49.138;8.900;2023-07-02T17:20:42;19.00;;;11.82;;
19036;SDS011;9651;49.138;8.900;2023-07-02T17:24:44;20.90;;;12.05;;
19036;SDS011;9651;49.138;8.900;2023-07-02T17:28:48;19.45;;;11.48;;
19036;SDS011;9651;49.138;8.900;2023-07-02T17:32:51;18.27;;;11.88;;
19036;SDS011;9651;49.138;8.900;2023-07-02T17:36:54;21.30;;;11.55;;
19036;SDS011;9651;49.138;8.900;2023-07-02T17:40:57;20.50;;;12.10;;
19036;SDS011;9651;49.138;8.900;2023-07-02T17:44:59;22.15;;;12.98;;
19036;SDS011;9651;49.138;8.900;2023-07-02T17:49:02;23.38;;;12.05;;
19036;SDS011;9651;49.138;8.900;2023-07-02T17:53:04;20.65;;;11.82;;
19036;SDS011;9651;49.138;8.900;2023-07-02T17:57:06;16.92;;;11.30;;
19036;SDS011;9651;49.138;8.900;2023-07-02T18:01:09;18.98;;;11.88;;
19036;SDS011;9651;49.138;8.900;2023-07-02T18:05:12;20.17;;;11.38;;
19036;SDS011;9651;49.138;8.900;2023-07-02T18:09:14;18.88;;;11.98;;
19036;SDS011;9651;49.138;8.900;2023-07-02T18:13:17;21.13;;;12.57;;
19036;SDS011;9651;49.138;8.900;2023-07-02T18:17:21;19.60;;;11.38;;
19036;SDS011;9651;49.138;8.900;2023-07-02T18:21:24;22.70;;;11.30;;
19036;SDS011;9651;49.138;8.900;2023-07-02T18:25:26;19.30;;;12.18;;
19036;SDS011;9651;49.138;8.900;2023-07-02T18:29:28;21.30;;;11.75;;
19036;SDS011;9651;49.138;8.900;2023-07-02T18:33:32;25.65;;;11.80;;
19036;SDS011;9651;49.138;8.900;2023-07-02T18:37:36;19.45;;;11.45;;
19036;SDS011;9651;49.138;8.900;2023-07-02T18:41:38;21.95;;;11.50;;
19036;SDS011;9651;49.138;8.900;2023-07-02T18:45:40;18.98;;;12.80;;
19036;SDS011;9651;49.138;8.900;2023-07-02T18:49:42;20.73;;;11.48;;
19036;SDS011;9651;49.138;8.900;2023-07-02T18:53:45;20.85;;;10.80;;
19036;SDS011;9651;49.138;8.900;2023-07-02T18:57:47;19.25;;;12.23;;
19036;SDS011;9651;49.138;8.900;2023-07-02T19:01:49;23.98;;;11.35;;
19036;SDS011;9651;49.138;8.900;2023-07-02T19:05:51;21.95;;;11.50;;
19036;SDS011;9651;49.138;8.900;2023-07-02T19:09:54;21.27;;;11.55;;
19036;SDS011;9651;49.138;8.900;2023-07-02T19:13:56;19.98;;;11.98;;
19036;SDS011;9651;49.138;8.900;2023-07-02T19:17:59;19.90;;;11.77;;
19036;SDS011;9651;49.138;8.900;2023-07-02T19:22:02;24.73;;;12.27;;
19036;SDS011;9651;49.138;8.900;2023-07-02T19:26:05;21.30;;;11.40;;
19036;SDS011;9651;49.138;8.900;2023-07-02T19:30:07;23.92;;;12.35;;
19036;SDS011;9651;49.138;8.900;2023-07-02T19:34:09;17.25;;;10.68;;
19036;SDS011;9651;49.138;8.900;2023-07-02T19:38:11;21.55;;;11.35;;
19036;SDS011;9651;49.138;8.900;2023-07-02T19:42:15;24.40;;;12.07;;
19036;SDS011;9651;49.138;8.900;2023-07-02T19:46:17;17.20;;;10.98;;
19036;SDS011;9651;49.138;8.900;2023-07-02T19:50:19;18.27;;;10.43;;
19036;SDS011;9651;49.138;8.900;2023-07-02T19:54:21;19.10;;;10.27;;
19036;SDS011;9651;49.138;8.900;2023-07-02T19:58:24;22.10;;;11.70;;
19036;SDS011;9651;49.138;8.900;2023-07-02T20:02:26;23.63;;;10.70;;
19036;SDS011;9651;49.138;8.900;2023-07-02T20:06:28;20.85;;;11.35;;
19036;SDS011;9651;49.138;8.900;2023-07-02T20:10:30;21.42;;;11.70;;
19036;SDS011;9651;49.138;8.900;2023-07-02T20:14:34;25.38;;;10.23;;
19036;SDS011;9651;49.138;8.900;2023-07-02T20:18:35;21.40;;;10.80;;
19036;SDS011;9651;49.138;8.900;2023-07-02T20:22:37;21.85;;;10.82;;
19036;SDS011;9651;49.138;8.900;2023-07-02T20:26:41;19.05;;;10.35;;
19036;SDS011;9651;49.138;8.900;2023-07-02T20:30:44;16.20;;;9.98;;
19036;SDS011;9651;49.138;8.900;2023-07-02T20:34:47;20.75;;;9.55;;
19036;SDS011;9651;49.138;8.900;2023-07-02T20:38:49;17.98;;;10.90;;
19036;SDS011;9651;49.138;8.900;2023-07-02T20:42:52;19.10;;;10.57;;
19036;SDS011;9651;49.138;8.900;2023-07-02T20:46:58;21.25;;;10.75;;
19036;SDS011;9651;49.138;8.900;2023-07-02T20:51:01;21.60;;;10.63;;
19036;SDS011;9651;49.138;8.900;2023-07-02T20:55:03;17.30;;;9.75;;
19036;SDS011;9651;49.138;8.900;2023-07-02T20:59:05;18.42;;;9.65;;
19036;SDS011;9651;49.138;8.900;2023-07-02T21:03:10;23.50;;;11.27;;
19036;SDS011;9651;49.138;8.900;2023-07-02T21:07:12;22.35;;;11.65;;
19036;SDS011;9651;49.138;8.900;2023-07-02T21:11:15;24.10;;;11.57;;
19036;SDS011;9651;49.138;8.900;2023-07-02T21:15:16;23.10;;;10.63;;
19036;SDS011;9651;49.138;8.900;2023-07-02T21:19:20;21.70;;;10.32;;
19036;SDS011;9651;49.138;8.900;2023-07-02T21:23:22;23.20;;;11.85;;
19036;SDS011;9651;49.138;8.900;2023-07-02T21:27:24;24.27;;;10.15;;
19036;SDS011;9651;49.138;8.900;2023-07-02T21:31:25;27.55;;;10.48;;
19036;SDS011;9651;49.138;8.900;2023-07-02T21:35:29;17.08;;;10.55;;
19036;SDS011;9651;49.138;8.900;2023-07-02T21:39:31;22.55;;;10.90;;
19036;SDS011;9651;49.138;8.900;2023-07-02T21:43:33;21.27;;;10.82;;
19036;SDS011;9651;49.138;8.900;2023-07-02T21:47:35;23.50;;;10.98;;
19036;SDS011;9651;49.138;8.900;2023-07-02T21:51:38;18.98;;;10.15;;
19036;SDS011;9651;49.138;8.900;2023-07-02T21:55:40;19.90;;;10.60;;
19036;SDS011;9651;49.138;8.900;2023-07-02T21:59:42;22.70;;;9.48;;
19036;SDS011;9651;49.138;8.900;2023-07-02T22:03:44;21.80;;;10.10;;
19036;SDS011;9651;49.138;8.900;2023-07-02T22:07:47;20.08;;;10.82;;
19036;SDS011;9651;49.138;8.900;2023-07-02T22:11:49;26.35;;;10.80;;
19036;SDS011;9651;49.138;8.900;2023-07-02T22:15:51;25.42;;;11.10;;
19036;SDS011;9651;49.138;8.900;2023-07-02T22:19:52;19.25;;;10.20;;
19036;SDS011;9651;49.138;8.900;2023-07-02T22:23:56;24.65;;;11.23;;
19036;SDS011;9651;49.138;8.900;2023-07-02T22:27:58;18.80;;;10.20;;
19036;SDS011;9651;49.138;8.900;2023-07-02T22:32:00;18.25;;;9.98;;
19036;SDS011;9651;49.138;8.900;2023-07-02T22:36:02;19.80;;;10.30;;
19036;SDS011;9651;49.138;8.900;2023-07-02T22:40:06;22.25;;;10.57;;
19036;SDS011;9651;49.138;8.900;2023-07-02T22:44:09;21.20;;;10.63;;
19036;SDS011;9651;49.138;8.900;2023-07-02T22:48:11;22.38;;;10.07;;
19036;SDS011;9651;49.138;8.900;2023-07-02T22:52:13;16.77;;;9.50;;
19036;SDS011;9651;49.138;8.900;2023-07-02T22:56:19;19.13;;;10.23;;
19036;SDS011;9651;49.138;8.900;2023-07-02T23:00:21;23.52;;;10.68;;
19036;SDS011;9651;49.138;8.900;2023-07-02T23:04:23;22.77;;;11.40;;
19036;SDS011;9651;49.138;8.900;2023-07-02T23:08:25;18.63;;;10.07;;
19036;SDS011;9651;49.138;8.900;2023-07-02T23:12:28;23.60;;;10.13;;
19036;SDS011;9651;49.138;8.900;2023-07-02T23:16:30;23.90;;;9.95;;
19036;SDS011;9651;49.138;8.900;2023-07-02T23:20:31;19.88;;;10.10;;
19036;SDS011;9651;49.138;8.900;2023-07-02T23:24:36;23.88;;;10.23;;
19036;SDS011;9651;49.138;8.900;2023-07-02T23:28:40;20.80;;;10.25;;
19036;SDS011;9651;49.138;8.900;2023-07-02T23:32:41;17.00;;;9.38;;
19036;SDS011;9651;49.138;8.900;2023-07-02T23:36:44;18.10;;;9.07;;
19036;SDS011;9651;49.138;8.900;2023-07-02T23:40:46;18.45;;;9.80;;
19036;SDS011;9651;49.138;8.900;2023-07-02T23:44:49;21.50;;;9.70;;
19036;SDS011;9651;49.138;8.900;2023-07-02T23:48:51;19.80;;;10.73;;
19036;SDS011;9651;49.138;8.900;2023-07-02T23:52:52;21.02;;;10.50;;
19036;SDS011;9651;49.138;8.900;2023-07-02T23:56:54;19.08;;;10.82;;
